sensor_id;sensor_type;location;lat;lon;timestamp;temperature;humidity
1367;DHT22;16877;48.810;9.282;2023-06-22T00:01:23;33.80;51.00
1367;DHT22;16877;48.810;9.282;2023-06-22T00:03:53;33.80;51.10
1367;DHT22;16877;48.810;9.282;2023-06-22T00:06:20;33.70;51.10
1367;DHT22;16877;48.810;9.282;2023-06-22T00:08:50;33.70;51.00
1367;DHT22;16877;48.810;9.282;2023-06-22T00:11:17;33.70;51.10
1367;DHT22;16877;48.810;9.282;2023-06-22T00:13:46;33.70;51.10
1367;DHT22;16877;48.810;9.282;2023-06-22T00:16:14;33.70;51.20
1367;DHT22;16877;48.810;9.282;2023-06-22T00:18:42;33.70;51.30
1367;DHT22;16877;48.810;9.282;2023-06-22T00:21:14;33.70;51.30
1367;DHT22;16877;48.810;9.282;2023-06-22T00:23:46;33.70;51.40
1367;DHT22;16877;48.810;9.282;2023-06-22T00:26:13;33.70;51.40
1367;DHT22;16877;48.810;9.282;2023-06-22T00:28:40;33.60;51.40
1367;DHT22;16877;48.810;9.282;2023-06-22T00:31:08;33.60;51.50
1367;DHT22;16877;48.810;9.282;2023-06-22T00:33:37;33.60;51.50
1367;DHT22;16877;48.810;9.282;2023-06-22T00:36:21;33.60;51.60
1367;DHT22;16877;48.810;9.282;2023-06-22T00:38:50;33.50;51.60
1367;DHT22;16877;48.810;9.282;2023-06-22T00:41:23;33.60;51.60
1367;DHT22;16877;48.810;9.282;2023-06-22T00:43:54;33.50;51.70
1367;DHT22;16877;48.810;9.282;2023-06-22T00:46:21;33.50;51.70
1367;DHT22;16877;48.810;9.282;2023-06-22T00:48:49;33.50;51.80
1367;DHT22;16877;48.810;9.282;2023-06-22T00:51:31;33.50;51.70
1367;DHT22;16877;48.810;9.282;2023-06-22T00:53:59;33.50;51.70
1367;DHT22;16877;48.810;9.282;2023-06-22T00:56:41;33.40;51.70
1367;DHT22;16877;48.810;9.282;2023-06-22T00:59:09;33.50;51.90
1367;DHT22;16877;48.810;9.282;2023-06-22T01:01:37;33.40;51.90
1367;DHT22;16877;48.810;9.282;2023-06-22T01:04:06;33.40;51.90
1367;DHT22;16877;48.810;9.282;2023-06-22T01:06:45;33.40;52.00
1367;DHT22;16877;48.810;9.282;2023-06-22T01:09:15;33.40;52.00
1367;DHT22;16877;48.810;9.282;2023-06-22T01:11:47;33.30;51.90
1367;DHT22;16877;48.810;9.282;2023-06-22T01:14:22;33.30;52.00
1367;DHT22;16877;48.810;9.282;2023-06-22T01:16:52;33.30;51.90
1367;DHT22;16877;48.810;9.282;2023-06-22T01:19:33;33.30;52.00
1367;DHT22;16877;48.810;9.282;2023-06-22T01:22:04;33.30;52.00
1367;DHT22;16877;48.810;9.282;2023-06-22T01:24:45;33.30;52.10
1367;DHT22;16877;48.810;9.282;2023-06-22T01:27:22;33.30;52.10
1367;DHT22;16877;48.810;9.282;2023-06-22T01:30:01;33.30;52.10
1367;DHT22;16877;48.810;9.282;2023-06-22T01:32:33;33.20;52.10
1367;DHT22;16877;48.810;9.282;2023-06-22T01:35:16;33.20;52.30
1367;DHT22;16877;48.810;9.282;2023-06-22T01:37:44;33.20;52.20
1367;DHT22;16877;48.810;9.282;2023-06-22T01:40:13;33.10;52.20
1367;DHT22;16877;48.810;9.282;2023-06-22T01:42:43;33.10;52.20
1367;DHT22;16877;48.810;9.282;2023-06-22T01:45:27;33.10;52.30
1367;DHT22;16877;48.810;9.282;2023-06-22T01:47:55;33.10;52.30
1367;DHT22;16877;48.810;9.282;2023-06-22T01:50:23;33.10;52.30
1367;DHT22;16877;48.810;9.282;2023-06-22T01:52:51;33.10;52.50
1367;DHT22;16877;48.810;9.282;2023-06-22T01:55:18;33.10;52.50
1367;DHT22;16877;48.810;9.282;2023-06-22T01:58:00;33.10;52.50
1367;DHT22;16877;48.810;9.282;2023-06-22T02:00:48;33.00;52.50
1367;DHT22;16877;48.810;9.282;2023-06-22T02:03:19;33.00;52.50
1367;DHT22;16877;48.810;9.282;2023-06-22T02:05:51;33.00;52.70
1367;DHT22;16877;48.810;9.282;2023-06-22T02:08:21;33.00;52.60
1367;DHT22;16877;48.810;9.282;2023-06-22T02:10:51;33.00;52.70
1367;DHT22;16877;48.810;9.282;2023-06-22T02:13:19;33.00;52.70
1367;DHT22;16877;48.810;9.282;2023-06-22T02:15:48;32.90;52.50
1367;DHT22;16877;48.810;9.282;2023-06-22T02:18:15;32.90;52.70
1367;DHT22;16877;48.810;9.282;2023-06-22T02:20:43;32.90;52.70
1367;DHT22;16877;48.810;9.282;2023-06-22T02:23:25;32.90;52.70
1367;DHT22;16877;48.810;9.282;2023-06-22T02:25:53;32.90;52.80
1367;DHT22;16877;48.810;9.282;2023-06-22T02:28:20;32.80;52.80
1367;DHT22;16877;48.810;9.282;2023-06-22T02:30:49;32.80;52.70
1367;DHT22;16877;48.810;9.282;2023-06-22T02:33:31;32.70;52.80
1367;DHT22;16877;48.810;9.282;2023-06-22T02:36:00;32.70;52.90
1367;DHT22;16877;48.810;9.282;2023-06-22T02:38:30;32.70;52.90
1367;DHT22;16877;48.810;9.282;2023-06-22T02:41:01;32.70;52.90
1367;DHT22;16877;48.810;9.282;2023-06-22T02:43:29;32.70;53.00
1367;DHT22;16877;48.810;9.282;2023-06-22T02:45:59;32.70;53.00
1367;DHT22;16877;48.810;9.282;2023-06-22T02:48:27;32.70;53.10
1367;DHT22;16877;48.810;9.282;2023-06-22T02:50:54;32.60;53.10
1367;DHT22;16877;48.810;9.282;2023-06-22T02:53:21;32.60;53.10
1367;DHT22;16877;48.810;9.282;2023-06-22T02:55:49;32.60;53.20
1367;DHT22;16877;48.810;9.282;2023-06-22T02:58:16;32.60;53.30
1367;DHT22;16877;48.810;9.282;2023-06-22T03:00:44;32.60;53.10
1367;DHT22;16877;48.810;9.282;2023-06-22T03:03:12;32.60;53.20
1367;DHT22;16877;48.810;9.282;2023-06-22T03:05:40;32.50;53.20
1367;DHT22;16877;48.810;9.282;2023-06-22T03:08:08;32.50;53.30
1367;DHT22;16877;48.810;9.282;2023-06-22T03:10:40;32.50;53.30
1367;DHT22;16877;48.810;9.282;2023-06-22T03:13:07;32.50;53.40
1367;DHT22;16877;48.810;9.282;2023-06-22T03:15:35;32.50;53.30
1367;DHT22;16877;48.810;9.282;2023-06-22T03:18:02;32.50;53.40
1367;DHT22;16877;48.810;9.282;2023-06-22T03:20:32;32.50;53.40
1367;DHT22;16877;48.810;9.282;2023-06-22T03:22:59;32.50;53.40
1367;DHT22;16877;48.810;9.282;2023-06-22T03:25:27;32.50;53.40
1367;DHT22;16877;48.810;9.282;2023-06-22T03:27:54;32.50;53.40
1367;DHT22;16877;48.810;9.282;2023-06-22T03:30:22;32.40;53.40
1367;DHT22;16877;48.810;9.282;2023-06-22T03:32:49;32.40;53.40
1367;DHT22;16877;48.810;9.282;2023-06-22T03:35:18;32.40;53.40
1367;DHT22;16877;48.810;9.282;2023-06-22T03:37:51;32.40;53.40
1367;DHT22;16877;48.810;9.282;2023-06-22T03:40:18;32.40;53.50
1367;DHT22;16877;48.810;9.282;2023-06-22T03:42:47;32.40;53.50
1367;DHT22;16877;48.810;9.282;2023-06-22T03:45:30;32.40;53.50
1367;DHT22;16877;48.810;9.282;2023-06-22T03:48:08;32.30;53.50
1367;DHT22;16877;48.810;9.282;2023-06-22T03:50:35;32.30;53.50
1367;DHT22;16877;48.810;9.282;2023-06-22T03:53:05;32.40;53.60
1367;DHT22;16877;48.810;9.282;2023-06-22T03:55:34;32.30;53.60
1367;DHT22;16877;48.810;9.282;2023-06-22T03:58:02;32.30;53.60
1367;DHT22;16877;48.810;9.282;2023-06-22T04:00:31;32.40;53.70
1367;DHT22;16877;48.810;9.282;2023-06-22T04:02:58;32.30;53.70
1367;DHT22;16877;48.810;9.282;2023-06-22T04:05:25;32.30;53.70
1367;DHT22;16877;48.810;9.282;2023-06-22T04:07:54;32.30;53.70
1367;DHT22;16877;48.810;9.282;2023-06-22T04:10:23;32.30;53.60
1367;DHT22;16877;48.810;9.282;2023-06-22T04:12:51;32.30;53.70
1367;DHT22;16877;48.810;9.282;2023-06-22T04:15:18;32.30;53.80
1367;DHT22;16877;48.810;9.282;2023-06-22T04:17:48;32.30;53.70
1367;DHT22;16877;48.810;9.282;2023-06-22T04:20:15;32.30;53.80
1367;DHT22;16877;48.810;9.282;2023-06-22T04:22:47;32.20;53.70
1367;DHT22;16877;48.810;9.282;2023-06-22T04:25:15;32.20;53.70
1367;DHT22;16877;48.810;9.282;2023-06-22T04:27:59;32.30;53.80
1367;DHT22;16877;48.810;9.282;2023-06-22T04:30:32;32.30;53.90
1367;DHT22;16877;48.810;9.282;2023-06-22T04:33:14;32.30;53.90
1367;DHT22;16877;48.810;9.282;2023-06-22T04:35:44;32.30;53.90
1367;DHT22;16877;48.810;9.282;2023-06-22T04:38:13;32.30;53.90
1367;DHT22;16877;48.810;9.282;2023-06-22T04:40:55;32.30;53.90
1367;DHT22;16877;48.810;9.282;2023-06-22T04:43:29;32.30;53.90
1367;DHT22;16877;48.810;9.282;2023-06-22T04:45:57;32.40;53.90
1367;DHT22;16877;48.810;9.282;2023-06-22T04:48:29;32.30;53.90
1367;DHT22;16877;48.810;9.282;2023-06-22T04:51:01;32.40;53.90
1367;DHT22;16877;48.810;9.282;2023-06-22T04:53:31;32.40;53.90
1367;DHT22;16877;48.810;9.282;2023-06-22T04:56:13;32.40;54.00
1367;DHT22;16877;48.810;9.282;2023-06-22T04:58:45;32.40;54.00
1367;DHT22;16877;48.810;9.282;2023-06-22T05:01:27;32.40;54.00
1367;DHT22;16877;48.810;9.282;2023-06-22T05:03:55;32.40;54.00
1367;DHT22;16877;48.810;9.282;2023-06-22T05:06:22;32.50;54.00
1367;DHT22;16877;48.810;9.282;2023-06-22T05:08:52;32.50;53.90
1367;DHT22;16877;48.810;9.282;2023-06-22T05:11:22;32.50;53.90
1367;DHT22;16877;48.810;9.282;2023-06-22T05:13:52;32.60;54.00
1367;DHT22;16877;48.810;9.282;2023-06-22T05:16:34;32.60;53.90
1367;DHT22;16877;48.810;9.282;2023-06-22T05:19:02;32.60;53.80
1367;DHT22;16877;48.810;9.282;2023-06-22T05:21:32;32.60;53.80
1367;DHT22;16877;48.810;9.282;2023-06-22T05:23:59;32.60;53.80
1367;DHT22;16877;48.810;9.282;2023-06-22T05:26:41;32.70;53.70
1367;DHT22;16877;48.810;9.282;2023-06-22T05:29:10;32.70;53.60
1367;DHT22;16877;48.810;9.282;2023-06-22T05:31:38;32.70;53.60
1367;DHT22;16877;48.810;9.282;2023-06-22T05:34:06;32.70;53.60
1367;DHT22;16877;48.810;9.282;2023-06-22T05:36:48;32.70;53.50
1367;DHT22;16877;48.810;9.282;2023-06-22T05:39:16;32.80;53.40
1367;DHT22;16877;48.810;9.282;2023-06-22T05:41:46;32.80;53.30
1367;DHT22;16877;48.810;9.282;2023-06-22T05:44:15;32.90;53.30
1367;DHT22;16877;48.810;9.282;2023-06-22T05:46:45;32.90;53.30
1367;DHT22;16877;48.810;9.282;2023-06-22T05:49:13;33.00;53.30
1367;DHT22;16877;48.810;9.282;2023-06-22T05:51:42;33.00;53.20
1367;DHT22;16877;48.810;9.282;2023-06-22T05:54:10;33.10;53.20
1367;DHT22;16877;48.810;9.282;2023-06-22T05:56:43;33.10;53.10
1367;DHT22;16877;48.810;9.282;2023-06-22T05:59:11;33.10;53.00
1367;DHT22;16877;48.810;9.282;2023-06-22T06:01:42;33.20;53.10
1367;DHT22;16877;48.810;9.282;2023-06-22T06:04:10;33.20;53.00
1367;DHT22;16877;48.810;9.282;2023-06-22T06:06:38;33.30;52.90
1367;DHT22;16877;48.810;9.282;2023-06-22T06:09:08;33.20;52.90
1367;DHT22;16877;48.810;9.282;2023-06-22T06:11:37;33.30;52.90
1367;DHT22;16877;48.810;9.282;2023-06-22T06:14:05;33.30;52.80
1367;DHT22;16877;48.810;9.282;2023-06-22T06:16:33;33.30;52.80
1367;DHT22;16877;48.810;9.282;2023-06-22T06:19:02;33.40;52.80
1367;DHT22;16877;48.810;9.282;2023-06-22T06:21:29;33.40;52.70
1367;DHT22;16877;48.810;9.282;2023-06-22T06:23:57;33.40;53.20
1367;DHT22;16877;48.810;9.282;2023-06-22T06:26:25;33.40;52.60
1367;DHT22;16877;48.810;9.282;2023-06-22T06:28:55;33.40;52.60
1367;DHT22;16877;48.810;9.282;2023-06-22T06:31:25;33.40;52.50
1367;DHT22;16877;48.810;9.282;2023-06-22T06:33:54;33.50;52.60
1367;DHT22;16877;48.810;9.282;2023-06-22T06:36:27;33.50;52.60
1367;DHT22;16877;48.810;9.282;2023-06-22T06:39:09;33.60;52.60
1367;DHT22;16877;48.810;9.282;2023-06-22T06:41:42;33.60;52.60
1367;DHT22;16877;48.810;9.282;2023-06-22T06:44:09;33.70;52.60
1367;DHT22;16877;48.810;9.282;2023-06-22T06:46:39;33.80;52.50
1367;DHT22;16877;48.810;9.282;2023-06-22T06:49:07;33.80;52.50
1367;DHT22;16877;48.810;9.282;2023-06-22T06:51:36;33.90;52.40
1367;DHT22;16877;48.810;9.282;2023-06-22T06:54:06;34.00;52.30
1367;DHT22;16877;48.810;9.282;2023-06-22T06:56:34;34.00;52.30
1367;DHT22;16877;48.810;9.282;2023-06-22T06:59:01;34.10;52.20
1367;DHT22;16877;48.810;9.282;2023-06-22T07:01:29;34.10;52.10
1367;DHT22;16877;48.810;9.282;2023-06-22T07:04:00;34.20;52.10
1367;DHT22;16877;48.810;9.282;2023-06-22T07:06:27;34.30;52.00
1367;DHT22;16877;48.810;9.282;2023-06-22T07:08:59;34.40;51.90
1367;DHT22;16877;48.810;9.282;2023-06-22T07:11:27;34.40;51.80
1367;DHT22;16877;48.810;9.282;2023-06-22T07:13:55;34.50;51.70
1367;DHT22;16877;48.810;9.282;2023-06-22T07:16:23;34.60;51.70
1367;DHT22;16877;48.810;9.282;2023-06-22T07:18:53;34.70;51.60
1367;DHT22;16877;48.810;9.282;2023-06-22T07:21:21;34.70;51.50
1367;DHT22;16877;48.810;9.282;2023-06-22T07:24:00;34.80;51.40
1367;DHT22;16877;48.810;9.282;2023-06-22T07:26:27;34.80;51.20
1367;DHT22;16877;48.810;9.282;2023-06-22T07:28:55;34.90;51.20
1367;DHT22;16877;48.810;9.282;2023-06-22T07:31:27;35.00;51.10
1367;DHT22;16877;48.810;9.282;2023-06-22T07:34:09;35.00;50.90
1367;DHT22;16877;48.810;9.282;2023-06-22T07:36:38;35.10;50.80
1367;DHT22;16877;48.810;9.282;2023-06-22T07:39:21;35.20;50.70
1367;DHT22;16877;48.810;9.282;2023-06-22T07:41:51;35.30;50.60
1367;DHT22;16877;48.810;9.282;2023-06-22T07:44:23;35.30;50.50
1367;DHT22;16877;48.810;9.282;2023-06-22T07:46:51;35.40;50.40
1367;DHT22;16877;48.810;9.282;2023-06-22T07:49:19;35.50;50.30
1367;DHT22;16877;48.810;9.282;2023-06-22T07:51:47;35.50;50.20
1367;DHT22;16877;48.810;9.282;2023-06-22T07:54:14;35.60;50.10
1367;DHT22;16877;48.810;9.282;2023-06-22T07:56:45;35.60;49.80
1367;DHT22;16877;48.810;9.282;2023-06-22T07:59:13;35.70;49.80
1367;DHT22;16877;48.810;9.282;2023-06-22T08:01:41;35.80;49.70
1367;DHT22;16877;48.810;9.282;2023-06-22T08:04:14;35.90;49.60
1367;DHT22;16877;48.810;9.282;2023-06-22T08:06:41;36.00;49.50
1367;DHT22;16877;48.810;9.282;2023-06-22T08:09:09;36.10;49.30
1367;DHT22;16877;48.810;9.282;2023-06-22T08:11:36;36.20;49.30
1367;DHT22;16877;48.810;9.282;2023-06-22T08:14:06;36.30;49.10
1367;DHT22;16877;48.810;9.282;2023-06-22T08:16:33;36.30;48.90
1367;DHT22;16877;48.810;9.282;2023-06-22T08:19:01;36.40;48.90
1367;DHT22;16877;48.810;9.282;2023-06-22T08:21:28;36.50;48.80
1367;DHT22;16877;48.810;9.282;2023-06-22T08:23:56;36.60;48.70
1367;DHT22;16877;48.810;9.282;2023-06-22T08:26:24;36.80;48.60
1367;DHT22;16877;48.810;9.282;2023-06-22T08:28:51;36.90;48.40
1367;DHT22;16877;48.810;9.282;2023-06-22T08:31:20;36.90;48.20
1367;DHT22;16877;48.810;9.282;2023-06-22T08:34:03;37.00;48.30
1367;DHT22;16877;48.810;9.282;2023-06-22T08:36:30;37.00;48.00
1367;DHT22;16877;48.810;9.282;2023-06-22T08:38:58;37.10;47.90
1367;DHT22;16877;48.810;9.282;2023-06-22T08:41:29;37.10;47.80
1367;DHT22;16877;48.810;9.282;2023-06-22T08:44:01;37.20;47.80
1367;DHT22;16877;48.810;9.282;2023-06-22T08:46:32;37.50;47.80
1367;DHT22;16877;48.810;9.282;2023-06-22T08:49:14;37.60;47.50
1367;DHT22;16877;48.810;9.282;2023-06-22T08:51:42;37.80;47.20
1367;DHT22;16877;48.810;9.282;2023-06-22T08:54:10;37.80;46.80
1367;DHT22;16877;48.810;9.282;2023-06-22T08:56:37;37.90;46.80
1367;DHT22;16877;48.810;9.282;2023-06-22T08:59:19;37.90;46.60
1367;DHT22;16877;48.810;9.282;2023-06-22T09:01:49;37.90;46.60
1367;DHT22;16877;48.810;9.282;2023-06-22T09:04:16;38.00;46.50
1367;DHT22;16877;48.810;9.282;2023-06-22T09:06:44;38.20;46.40
1367;DHT22;16877;48.810;9.282;2023-06-22T09:09:27;38.40;46.30
1367;DHT22;16877;48.810;9.282;2023-06-22T09:11:54;38.50;46.00
1367;DHT22;16877;48.810;9.282;2023-06-22T09:14:22;38.80;46.00
1367;DHT22;16877;48.810;9.282;2023-06-22T09:16:51;38.80;45.70
1367;DHT22;16877;48.810;9.282;2023-06-22T09:19:19;38.80;45.40
1367;DHT22;16877;48.810;9.282;2023-06-22T09:22:01;38.80;45.30
1367;DHT22;16877;48.810;9.282;2023-06-22T09:24:29;38.90;45.30
1367;DHT22;16877;48.810;9.282;2023-06-22T09:26:56;39.10;45.30
1367;DHT22;16877;48.810;9.282;2023-06-22T09:29:24;39.20;45.10
1367;DHT22;16877;48.810;9.282;2023-06-22T09:31:54;39.40;44.80
1367;DHT22;16877;48.810;9.282;2023-06-22T09:34:21;39.60;44.40
1367;DHT22;16877;48.810;9.282;2023-06-22T09:36:49;39.70;44.20
1367;DHT22;16877;48.810;9.282;2023-06-22T09:39:18;39.70;43.90
1367;DHT22;16877;48.810;9.282;2023-06-22T09:41:45;39.90;43.70
1367;DHT22;16877;48.810;9.282;2023-06-22T09:44:13;40.00;43.60
1367;DHT22;16877;48.810;9.282;2023-06-22T09:46:41;40.10;43.50
1367;DHT22;16877;48.810;9.282;2023-06-22T09:49:10;40.30;43.50
1367;DHT22;16877;48.810;9.282;2023-06-22T09:51:38;40.40;43.20
1367;DHT22;16877;48.810;9.282;2023-06-22T09:54:20;40.50;43.20
1367;DHT22;16877;48.810;9.282;2023-06-22T09:56:47;40.60;43.00
1367;DHT22;16877;48.810;9.282;2023-06-22T09:59:15;40.60;42.80
1367;DHT22;16877;48.810;9.282;2023-06-22T10:01:42;40.60;42.80
1367;DHT22;16877;48.810;9.282;2023-06-22T10:04:14;40.60;42.80
1367;DHT22;16877;48.810;9.282;2023-06-22T10:06:56;40.90;42.80
1367;DHT22;16877;48.810;9.282;2023-06-22T10:09:25;41.10;42.80
1367;DHT22;16877;48.810;9.282;2023-06-22T10:11:52;41.20;42.60
1367;DHT22;16877;48.810;9.282;2023-06-22T10:14:34;41.40;42.50
1367;DHT22;16877;48.810;9.282;2023-06-22T10:17:03;41.30;42.30
1367;DHT22;16877;48.810;9.282;2023-06-22T10:19:34;41.20;42.30
1367;DHT22;16877;48.810;9.282;2023-06-22T10:22:04;41.10;42.30
1367;DHT22;16877;48.810;9.282;2023-06-22T10:24:32;41.20;42.50
1367;DHT22;16877;48.810;9.282;2023-06-22T10:27:00;41.10;42.40
1367;DHT22;16877;48.810;9.282;2023-06-22T10:29:27;41.30;42.50
1367;DHT22;16877;48.810;9.282;2023-06-22T10:31:55;41.40;42.40
1367;DHT22;16877;48.810;9.282;2023-06-22T10:34:22;41.40;42.30
1367;DHT22;16877;48.810;9.282;2023-06-22T10:36:51;41.60;42.40
1367;DHT22;16877;48.810;9.282;2023-06-22T10:39:20;41.70;42.10
1367;DHT22;16877;48.810;9.282;2023-06-22T10:41:51;41.60;42.00
1367;DHT22;16877;48.810;9.282;2023-06-22T10:44:19;41.70;42.10
1367;DHT22;16877;48.810;9.282;2023-06-22T10:46:46;41.90;41.90
1367;DHT22;16877;48.810;9.282;2023-06-22T10:49:14;41.90;41.70
1367;DHT22;16877;48.810;9.282;2023-06-22T10:51:44;41.80;41.70
1367;DHT22;16877;48.810;9.282;2023-06-22T10:54:13;41.80;41.80
1367;DHT22;16877;48.810;9.282;2023-06-22T10:56:43;41.70;41.70
1367;DHT22;16877;48.810;9.282;2023-06-22T10:59:12;41.60;41.70
1367;DHT22;16877;48.810;9.282;2023-06-22T11:01:42;41.60;41.70
1367;DHT22;16877;48.810;9.282;2023-06-22T11:04:09;41.50;41.80
1367;DHT22;16877;48.810;9.282;2023-06-22T11:06:36;41.50;41.80
1367;DHT22;16877;48.810;9.282;2023-06-22T11:09:04;41.50;41.80
1367;DHT22;16877;48.810;9.282;2023-06-22T11:11:33;41.50;41.80
1367;DHT22;16877;48.810;9.282;2023-06-22T11:14:00;41.40;41.80
1367;DHT22;16877;48.810;9.282;2023-06-22T11:16:28;41.40;41.80
1367;DHT22;16877;48.810;9.282;2023-06-22T11:18:56;41.40;41.70
1367;DHT22;16877;48.810;9.282;2023-06-22T11:21:23;41.40;41.70
1367;DHT22;16877;48.810;9.282;2023-06-22T11:23:53;41.40;41.70
1367;DHT22;16877;48.810;9.282;2023-06-22T11:26:21;41.30;41.70
1367;DHT22;16877;48.810;9.282;2023-06-22T11:28:49;41.30;41.70
1367;DHT22;16877;48.810;9.282;2023-06-22T11:31:17;41.30;41.70
1367;DHT22;16877;48.810;9.282;2023-06-22T11:33:45;41.30;41.60
1367;DHT22;16877;48.810;9.282;2023-06-22T11:36:14;41.20;41.50
1367;DHT22;16877;48.810;9.282;2023-06-22T11:38:41;41.20;41.50
1367;DHT22;16877;48.810;9.282;2023-06-22T11:41:10;41.20;41.50
1367;DHT22;16877;48.810;9.282;2023-06-22T11:43:37;41.20;41.30
1367;DHT22;16877;48.810;9.282;2023-06-22T11:46:10;41.20;41.50
1367;DHT22;16877;48.810;9.282;2023-06-22T11:48:42;41.30;41.50
1367;DHT22;16877;48.810;9.282;2023-06-22T11:51:10;41.40;41.40
1367;DHT22;16877;48.810;9.282;2023-06-22T11:53:39;41.50;41.40
1367;DHT22;16877;48.810;9.282;2023-06-22T11:56:07;41.60;41.30
1367;DHT22;16877;48.810;9.282;2023-06-22T11:58:49;41.60;41.30
1367;DHT22;16877;48.810;9.282;2023-06-22T12:01:19;41.60;41.20
1367;DHT22;16877;48.810;9.282;2023-06-22T12:03:47;41.50;41.30
1367;DHT22;16877;48.810;9.282;2023-06-22T12:06:15;41.60;41.50
1367;DHT22;16877;48.810;9.282;2023-06-22T12:08:57;41.50;41.40
1367;DHT22;16877;48.810;9.282;2023-06-22T12:11:25;41.60;41.50
1367;DHT22;16877;48.810;9.282;2023-06-22T12:13:52;41.60;41.30
1367;DHT22;16877;48.810;9.282;2023-06-22T12:16:21;41.60;41.40
1367;DHT22;16877;48.810;9.282;2023-06-22T12:18:50;41.50;41.40
1367;DHT22;16877;48.810;9.282;2023-06-22T12:21:17;41.40;41.50
1367;DHT22;16877;48.810;9.282;2023-06-22T12:23:45;41.40;41.50
1367;DHT22;16877;48.810;9.282;2023-06-22T12:26:27;41.30;41.50
1367;DHT22;16877;48.810;9.282;2023-06-22T12:29:09;41.30;41.50
1367;DHT22;16877;48.810;9.282;2023-06-22T12:31:39;41.20;41.50
1367;DHT22;16877;48.810;9.282;2023-06-22T12:34:07;41.20;41.60
1367;DHT22;16877;48.810;9.282;2023-06-22T12:36:35;41.20;41.70
1367;DHT22;16877;48.810;9.282;2023-06-22T12:39:03;41.10;41.60
1367;DHT22;16877;48.810;9.282;2023-06-22T12:41:30;41.10;41.50
1367;DHT22;16877;48.810;9.282;2023-06-22T12:43:57;40.90;41.60
1367;DHT22;16877;48.810;9.282;2023-06-22T12:46:35;40.80;41.70
1367;DHT22;16877;48.810;9.282;2023-06-22T12:49:05;40.70;41.70
1367;DHT22;16877;48.810;9.282;2023-06-22T12:51:32;40.60;41.80
1367;DHT22;16877;48.810;9.282;2023-06-22T12:54:00;40.60;41.80
1367;DHT22;16877;48.810;9.282;2023-06-22T12:56:27;40.50;41.80
1367;DHT22;16877;48.810;9.282;2023-06-22T12:58:55;40.40;41.90
1367;DHT22;16877;48.810;9.282;2023-06-22T13:01:23;40.30;41.90
1367;DHT22;16877;48.810;9.282;2023-06-22T13:03:50;40.20;41.90
1367;DHT22;16877;48.810;9.282;2023-06-22T13:06:18;40.10;41.90
1367;DHT22;16877;48.810;9.282;2023-06-22T13:08:46;40.10;41.90
1367;DHT22;16877;48.810;9.282;2023-06-22T13:11:14;40.10;41.90
1367;DHT22;16877;48.810;9.282;2023-06-22T13:13:52;40.00;41.90
1367;DHT22;16877;48.810;9.282;2023-06-22T13:16:19;39.90;42.00
1367;DHT22;16877;48.810;9.282;2023-06-22T13:18:47;39.90;42.00
1367;DHT22;16877;48.810;9.282;2023-06-22T13:21:15;39.90;42.10
1367;DHT22;16877;48.810;9.282;2023-06-22T13:23:44;39.90;42.10
1367;DHT22;16877;48.810;9.282;2023-06-22T13:26:14;39.80;42.10
1367;DHT22;16877;48.810;9.282;2023-06-22T13:28:41;39.90;42.20
1367;DHT22;16877;48.810;9.282;2023-06-22T13:31:23;39.90;42.20
1367;DHT22;16877;48.810;9.282;2023-06-22T13:33:51;40.00;42.20
1367;DHT22;16877;48.810;9.282;2023-06-22T13:36:18;40.00;42.20
1367;DHT22;16877;48.810;9.282;2023-06-22T13:39:02;40.00;42.10
1367;DHT22;16877;48.810;9.282;2023-06-22T13:41:30;40.00;42.10
1367;DHT22;16877;48.810;9.282;2023-06-22T13:43:58;40.00;42.10
1367;DHT22;16877;48.810;9.282;2023-06-22T13:46:25;40.00;42.20
1367;DHT22;16877;48.810;9.282;2023-06-22T13:49:02;40.00;42.10
1367;DHT22;16877;48.810;9.282;2023-06-22T13:51:30;40.00;42.10
1367;DHT22;16877;48.810;9.282;2023-06-22T13:53:57;40.10;42.00
1367;DHT22;16877;48.810;9.282;2023-06-22T13:56:27;40.10;42.00
1367;DHT22;16877;48.810;9.282;2023-06-22T13:58:59;40.20;42.00
1367;DHT22;16877;48.810;9.282;2023-06-22T14:01:26;40.20;42.00
1367;DHT22;16877;48.810;9.282;2023-06-22T14:03:54;40.20;41.90
1367;DHT22;16877;48.810;9.282;2023-06-22T14:06:21;40.20;41.90
1367;DHT22;16877;48.810;9.282;2023-06-22T14:08:49;40.20;41.80
1367;DHT22;16877;48.810;9.282;2023-06-22T14:11:16;40.40;41.90
1367;DHT22;16877;48.810;9.282;2023-06-22T14:13:45;40.60;41.90
1367;DHT22;16877;48.810;9.282;2023-06-22T14:16:13;40.60;41.70
1367;DHT22;16877;48.810;9.282;2023-06-22T14:18:44;40.70;41.70
1367;DHT22;16877;48.810;9.282;2023-06-22T14:21:14;40.90;41.50
1367;DHT22;16877;48.810;9.282;2023-06-22T14:23:42;41.20;42.10
1367;DHT22;16877;48.810;9.282;2023-06-22T14:26:14;41.40;41.20
1367;DHT22;16877;48.810;9.282;2023-06-22T14:28:43;41.60;40.90
1367;DHT22;16877;48.810;9.282;2023-06-22T14:31:16;41.70;40.70
1367;DHT22;16877;48.810;9.282;2023-06-22T14:33:46;41.70;40.50
1367;DHT22;16877;48.810;9.282;2023-06-22T14:36:16;41.60;40.10
1367;DHT22;16877;48.810;9.282;2023-06-22T14:38:43;41.60;39.90
1367;DHT22;16877;48.810;9.282;2023-06-22T14:41:11;41.60;39.40
1367;DHT22;16877;48.810;9.282;2023-06-22T14:43:46;41.60;39.00
1367;DHT22;16877;48.810;9.282;2023-06-22T14:46:18;41.90;38.80
1367;DHT22;16877;48.810;9.282;2023-06-22T14:48:46;42.10;38.30
1367;DHT22;16877;48.810;9.282;2023-06-22T14:51:16;42.40;37.90
1367;DHT22;16877;48.810;9.282;2023-06-22T14:53:44;42.60;38.20
1367;DHT22;16877;48.810;9.282;2023-06-22T14:56:12;42.70;36.90
1367;DHT22;16877;48.810;9.282;2023-06-22T14:58:42;42.70;36.10
1367;DHT22;16877;48.810;9.282;2023-06-22T15:01:11;42.70;35.80
1367;DHT22;16877;48.810;9.282;2023-06-22T15:03:41;42.80;35.90
1367;DHT22;16877;48.810;9.282;2023-06-22T15:06:09;42.90;36.10
1367;DHT22;16877;48.810;9.282;2023-06-22T15:08:37;42.90;36.00
1367;DHT22;16877;48.810;9.282;2023-06-22T15:11:12;42.90;35.80
1367;DHT22;16877;48.810;9.282;2023-06-22T15:13:54;42.90;36.00
1367;DHT22;16877;48.810;9.282;2023-06-22T15:16:21;42.70;36.00
1367;DHT22;16877;48.810;9.282;2023-06-22T15:18:50;42.60;36.00
1367;DHT22;16877;48.810;9.282;2023-06-22T15:21:22;42.60;35.50
1367;DHT22;16877;48.810;9.282;2023-06-22T15:23:51;42.60;34.90
1367;DHT22;16877;48.810;9.282;2023-06-22T15:26:33;42.70;34.20
1367;DHT22;16877;48.810;9.282;2023-06-22T15:29:00;42.70;33.80
1367;DHT22;16877;48.810;9.282;2023-06-22T15:31:28;42.80;33.40
1367;DHT22;16877;48.810;9.282;2023-06-22T15:33:58;42.90;32.90
1367;DHT22;16877;48.810;9.282;2023-06-22T15:36:26;42.90;32.70
1367;DHT22;16877;48.810;9.282;2023-06-22T15:38:54;42.90;32.50
1367;DHT22;16877;48.810;9.282;2023-06-22T15:41:23;42.90;32.30
1367;DHT22;16877;48.810;9.282;2023-06-22T15:43:55;42.80;32.20
1367;DHT22;16877;48.810;9.282;2023-06-22T15:46:26;42.60;32.00
1367;DHT22;16877;48.810;9.282;2023-06-22T15:48:54;42.50;31.80
1367;DHT22;16877;48.810;9.282;2023-06-22T15:51:27;42.50;31.90
1367;DHT22;16877;48.810;9.282;2023-06-22T15:53:57;42.30;31.80
1367;DHT22;16877;48.810;9.282;2023-06-22T15:56:24;42.30;31.90
1367;DHT22;16877;48.810;9.282;2023-06-22T15:59:07;42.20;31.90
1367;DHT22;16877;48.810;9.282;2023-06-22T16:01:35;42.10;31.90
1367;DHT22;16877;48.810;9.282;2023-06-22T16:04:03;42.00;32.10